createdAt,value
2018-01-18T06:42:41.010Z,99.60
2018-01-18T06:45:08.470Z,99.60
2018-01-18T06:47:36.188Z,99.70
2018-01-18T06:50:03.892Z,99.70
2018-01-18T06:52:31.370Z,99.80
2018-01-18T06:55:00.817Z,99.60
2018-01-18T06:57:29.187Z,99.60
2018-01-18T06:59:56.903Z,99.60
2018-01-18T07:02:24.327Z,99.60
2018-01-18T07:04:51.783Z,99.50
2018-01-18T07:07:20.958Z,99.50
2018-01-18T07:09:49.029Z,99.20
2018-01-18T07:12:16.457Z,98.60
2018-01-18T07:14:44.299Z,98.20
2018-01-18T07:26:16.226Z,97.30
2018-01-18T07:28:51.166Z,97.30
2018-01-18T07:31:20.966Z,97.10
2018-01-18T07:33:49.345Z,97.10
2018-01-18T07:36:16.825Z,96.90
2018-01-18T07:38:44.656Z,96.30
2018-01-18T07:41:12.127Z,96.40
2018-01-18T07:43:39.574Z,96.40
2018-01-18T07:46:07.039Z,96.10
2018-01-18T07:48:35.375Z,96.40
2018-01-18T07:51:02.810Z,96.30
2018-01-18T07:53:38.144Z,95.60
2018-01-18T07:56:17.227Z,95.70
2018-01-18T07:58:45.662Z,95.70
2018-01-18T08:01:15.677Z,95.60
2018-01-18T08:03:49.923Z,95.50
2018-01-18T08:06:25.880Z,95.50
2018-01-18T08:12:16.208Z,95.40
2018-01-18T08:17:34.596Z,95.10
2018-01-18T08:20:02.869Z,95.30
2018-01-18T08:22:30.348Z,95.10
2018-01-18T08:24:59.309Z,94.90
2018-01-18T08:27:35.268Z,94.90
2018-01-18T08:30:03.542Z,95.00
2018-01-18T08:32:32.410Z,95.00
2018-01-18T08:35:19.731Z,94.80
2018-01-18T08:46:46.091Z,94.50
2018-01-18T08:49:27.123Z,94.90
2018-01-18T09:19:42.596Z,98.70
2018-01-18T09:22:11.181Z,98.90
2018-01-18T09:27:50.980Z,98.30
2018-01-18T09:33:00.123Z,98.40
2018-01-18T09:43:59.077Z,97.60
2018-01-18T09:46:27.943Z,97.00
2018-01-18T09:49:21.864Z,96.80
2018-01-18T09:51:49.340Z,96.80
2018-01-18T09:54:18.356Z,96.50
2018-01-18T09:56:47.639Z,96.10
2018-01-18T09:59:15.814Z,95.90
2018-01-18T10:01:47.993Z,95.90
2018-01-18T10:04:15.542Z,95.30
2018-01-18T10:06:42.987Z,95.20
2018-01-18T10:09:10.433Z,95.40
2018-01-18T10:11:42.635Z,95.30
2018-01-18T10:14:15.346Z,94.70
2018-01-18T10:16:45.055Z,94.00
2018-01-18T10:19:15.154Z,94.00
2018-01-18T10:21:46.094Z,94.00
2018-01-18T10:24:13.529Z,93.60
2018-01-18T10:26:41.709Z,93.50
2018-01-18T10:29:14.077Z,92.70
2018-01-18T10:31:41.559Z,92.60
2018-01-18T10:34:12.137Z,91.70
2018-01-18T10:36:44.070Z,91.70
2018-01-18T10:39:13.240Z,91.00
2018-01-18T10:41:41.167Z,91.10
2018-01-18T10:44:10.710Z,90.60
2018-01-18T10:46:51.294Z,90.60
2018-01-18T10:49:43.972Z,90.00
2018-01-18T10:52:11.526Z,89.70
2018-01-18T10:54:40.209Z,92.30
2018-01-18T10:57:08.874Z,93.50
2018-01-18T10:59:37.483Z,94.00
2018-01-18T11:02:04.934Z,94.00
2018-01-18T11:04:32.435Z,94.70
2018-01-18T11:07:00.580Z,95.60
2018-01-18T11:09:28.637Z,95.80
2018-01-18T11:11:58.152Z,94.70
2018-01-18T11:14:25.649Z,94.70
2018-01-18T11:17:13.239Z,94.30
2018-01-18T11:22:34.825Z,93.20
2018-01-18T11:25:15.908Z,92.30
2018-01-18T11:30:30.436Z,90.30
2018-01-18T11:32:59.201Z,90.40
2018-01-18T12:24:06.831Z,85.80
2018-01-18T12:26:38.800Z,71.00
2018-01-18T12:29:24.275Z,71.00
2018-01-18T12:31:53.758Z,71.00
2018-01-18T12:34:23.067Z,71.20
2018-01-18T12:36:55.586Z,70.80
2018-01-18T12:39:24.022Z,70.80
2018-01-18T12:41:52.413Z,71.40
2018-01-18T12:44:23.397Z,70.20
2018-01-18T12:46:51.932Z,71.20
2018-01-18T12:49:24.257Z,70.90
2018-01-18T12:51:52.320Z,70.10
2018-01-18T12:54:26.388Z,70.90
2018-01-18T12:56:55.799Z,71.10
2018-01-18T13:05:14.047Z,71.30
2018-01-18T13:07:43.389Z,72.00
2018-01-18T13:10:14.528Z,71.50
2018-01-18T13:12:47.400Z,72.30
2018-01-18T13:15:15.490Z,72.30
2018-01-18T13:17:45.051Z,71.80
2018-01-18T13:20:32.975Z,71.60
2018-01-18T13:23:03.609Z,71.10
2018-01-18T13:25:31.446Z,70.70
2018-01-18T13:30:40.124Z,68.90
2018-01-18T13:33:08.734Z,69.50
2018-01-18T13:38:31.572Z,69.20
2018-01-18T13:41:00.078Z,71.70
2018-01-18T13:46:27.571Z,72.60
2018-01-18T13:51:36.729Z,74.00
2018-01-18T13:54:07.987Z,74.00
2018-01-18T13:56:46.025Z,73.90
2018-01-18T13:59:13.844Z,73.90
2018-01-18T14:01:42.828Z,74.10
2018-01-18T14:04:16.638Z,74.10
2018-01-18T14:06:50.554Z,73.80
2018-01-18T14:09:22.586Z,73.70
2018-01-18T14:11:50.043Z,74.30
2018-01-18T14:14:23.116Z,72.90
2018-01-18T14:16:52.247Z,73.60
2018-01-18T14:19:21.074Z,73.70
2018-01-18T14:21:48.532Z,74.20
2018-01-18T14:24:28.363Z,72.30
2018-01-18T14:27:02.063Z,71.50
2018-01-18T14:29:35.882Z,70.40
2018-01-18T14:32:05.011Z,70.50
2018-01-18T14:34:33.224Z,70.90
2018-01-18T14:37:06.252Z,71.20
2018-01-18T14:39:41.468Z,71.20
2018-01-18T14:42:15.133Z,71.20
2018-01-18T14:44:47.319Z,70.90
2018-01-18T14:47:15.572Z,71.00
2018-01-18T14:49:47.544Z,72.00
2018-01-18T14:52:16.569Z,72.50
2018-01-18T14:54:46.631Z,72.30
2018-01-18T14:57:14.835Z,71.80
2018-01-18T14:59:43.438Z,72.60
2018-01-18T15:02:11.554Z,72.60
2018-01-18T15:04:48.398Z,71.90
2018-01-18T15:07:19.267Z,71.90
2018-01-18T15:10:07.793Z,72.10
2018-01-18T15:12:36.125Z,71.40
2018-01-18T15:15:04.113Z,71.40
2018-01-18T15:17:45.726Z,72.10
2018-01-18T15:20:16.755Z,72.10
2018-01-18T16:06:39.662Z,71.80
2018-01-18T16:09:13.428Z,72.00
2018-01-18T16:11:41.923Z,72.00
2018-01-18T16:14:16.852Z,72.50
2018-01-18T16:16:58.909Z,72.30
2018-01-18T16:19:27.571Z,72.70
2018-01-18T16:22:00.167Z,72.40
2018-01-18T16:24:28.423Z,72.40
2018-01-18T16:27:14.658Z,72.40
2018-01-18T16:29:43.383Z,72.10
2018-01-18T16:32:13.139Z,72.60
2018-01-18T16:34:45.371Z,72.60
2018-01-18T16:37:14.357Z,73.50
2018-01-18T16:39:57.492Z,73.10
2018-01-18T16:42:27.676Z,73.40
2018-01-18T16:44:55.112Z,73.40
2018-01-18T16:47:23.481Z,73.10
2018-01-18T16:49:55.197Z,72.90
2018-01-18T16:54:59.226Z,73.80
2018-01-18T16:57:28.639Z,74.10
2018-01-18T16:59:59.242Z,73.80
2018-01-18T17:02:35.308Z,73.80
2018-01-18T17:05:06.591Z,73.30
2018-01-18T17:07:36.932Z,73.10
2018-01-18T17:10:10.720Z,73.50
2018-01-18T17:13:02.420Z,74.10
2018-01-18T17:15:32.304Z,74.10
2018-01-18T17:18:02.800Z,74.60
2018-01-18T17:20:31.523Z,74.80
2018-01-18T17:23:14.530Z,74.80
2018-01-18T17:25:48.378Z,75.50
2018-01-18T17:28:17.041Z,75.40
2018-01-18T17:30:49.147Z,75.40
2018-01-18T17:33:22.096Z,75.40
2018-01-18T17:35:56.757Z,75.20
2018-01-18T17:43:51.411Z,76.00
2018-01-18T17:46:21.935Z,76.00
2018-01-18T17:48:58.383Z,76.30
2018-01-18T17:51:31.367Z,76.70
2018-01-18T17:54:02.354Z,77.00
2018-01-18T17:56:32.588Z,77.10
2018-01-18T17:59:03.152Z,77.30
2018-01-18T18:01:41.586Z,77.30
2018-01-18T18:04:11.791Z,77.80
2018-01-18T18:12:04.134Z,78.20
2018-01-18T18:14:34.795Z,78.30
2018-01-18T18:17:06.445Z,78.50
2018-01-18T18:19:38.482Z,78.80
2018-01-18T18:22:10.015Z,78.80
2018-01-18T18:24:42.019Z,79.60
2018-01-18T18:27:14.834Z,79.20
2018-01-18T18:32:21.997Z,79.90
2018-01-18T18:34:54.890Z,80.40
2018-01-18T18:40:14.921Z,80.70
2018-01-18T18:48:00.109Z,81.80
2018-01-18T18:50:34.003Z,82.10
2018-01-18T18:53:02.212Z,82.20
2018-01-18T18:55:31.847Z,82.40
2018-01-18T18:58:00.771Z,82.40
2018-01-18T19:00:31.254Z,82.80
2018-01-18T19:03:00.496Z,82.80
2018-01-18T19:05:29.391Z,83.10
2018-01-18T19:07:57.383Z,83.00
2018-01-18T19:10:31.694Z,83.00
2018-01-18T19:13:02.609Z,83.50
2018-01-18T19:15:31.673Z,83.10
2018-01-18T19:18:00.897Z,83.10
2018-01-18T19:20:32.328Z,83.40
2018-01-18T19:23:04.573Z,83.30
2018-01-18T19:25:32.635Z,83.60
2018-01-18T19:30:37.690Z,83.70
2018-01-18T19:33:06.937Z,83.60
2018-01-18T19:35:35.998Z,83.90
2018-01-18T19:38:05.028Z,83.90
2018-01-18T19:40:36.170Z,84.00
2018-01-18T19:43:05.882Z,84.10
2018-01-18T19:51:22.809Z,84.70
2018-01-18T19:53:52.612Z,84.50
2018-01-18T19:56:26.260Z,84.60
2018-01-18T19:59:02.572Z,84.60
2018-01-18T20:01:32.767Z,84.60
2018-01-18T20:04:02.920Z,84.80
2018-01-18T20:12:17.245Z,85.40
2018-01-18T20:14:46.420Z,85.30
2018-01-18T20:20:20.825Z,85.70
2018-01-18T20:29:32.817Z,85.40
2018-01-18T20:32:00.272Z,85.40
2018-01-18T20:34:28.612Z,85.70
2018-01-18T20:36:56.981Z,85.50
2018-01-18T20:39:25.451Z,86.00
2018-01-18T20:41:56.945Z,86.30
2018-01-18T20:44:24.811Z,86.30
2018-01-18T21:03:17.569Z,86.90
2018-01-18T21:05:45.017Z,86.80
2018-01-18T21:11:08.427Z,87.00
2018-01-18T21:13:46.901Z,87.00
2018-01-18T21:16:14.338Z,87.10
2018-01-18T21:18:48.564Z,86.80
2018-01-18T21:24:03.334Z,86.80
2018-01-18T21:26:31.833Z,86.60
2018-01-18T21:29:08.075Z,86.60
2018-01-18T21:31:37.396Z,86.50
2018-01-18T21:34:05.975Z,86.50
2018-01-18T21:36:36.945Z,86.40
2018-01-18T21:39:05.802Z,86.50
2018-01-18T21:41:35.356Z,86.10
2018-01-18T21:44:03.428Z,86.20
2018-01-18T21:46:30.873Z,86.30
2018-01-18T21:49:01.283Z,86.40
2018-01-18T21:51:29.634Z,86.40
2018-01-18T21:56:52.200Z,86.30
2018-01-18T22:02:17.461Z,86.50
2018-01-18T22:07:52.937Z,86.80
2018-01-18T22:10:24.150Z,86.80
2018-01-18T22:15:35.855Z,87.10
2018-01-18T22:18:07.014Z,87.10
2018-01-18T22:20:36.792Z,86.90
2018-01-18T22:23:08.725Z,87.20
2018-01-18T22:25:36.209Z,87.40
2018-01-18T22:28:06.237Z,87.40
2018-01-18T22:30:38.881Z,87.60
2018-01-18T22:33:09.097Z,87.60
2018-01-18T22:35:43.456Z,87.70
2018-01-18T22:38:15.617Z,87.70
2018-01-18T22:40:48.138Z,87.90
2018-01-18T22:43:16.954Z,88.40
2018-01-18T22:45:49.561Z,88.90
2018-01-18T22:51:17.859Z,89.70
2018-01-18T22:54:04.833Z,89.70
2018-01-18T22:59:27.166Z,91.10
2018-01-18T23:04:48.888Z,92.10
2018-01-18T23:07:34.513Z,93.70
2018-01-18T23:13:15.560Z,94.80
2018-01-18T23:15:43.816Z,94.80
2018-01-18T23:18:11.656Z,95.20
2018-01-18T23:26:40.718Z,95.90
2018-01-18T23:29:10.763Z,96.20
2018-01-18T23:31:43.032Z,96.30
2018-01-18T23:34:13.103Z,96.50
2018-01-18T23:36:41.503Z,96.50
2018-01-18T23:39:12.153Z,96.70
2018-01-18T23:42:05.986Z,96.70
2018-01-18T23:44:37.194Z,96.70
2018-01-18T23:47:05.071Z,97.00
2018-01-18T23:49:36.072Z,97.20
2018-01-18T23:52:12.237Z,97.20
2018-01-18T23:57:21.001Z,97.60
2018-01-18T23:59:50.492Z,97.60
